sensor_id;sensor_type;location;lat;lon;timestamp;P1;durP1;ratioP1;P2;durP2;ratioP2
32824;SDS011;51060;42.640;24.356;2024-03-08T00:00:07;5.67;;;4.93;;
32824;SDS011;51060;42.640;24.356;2024-03-08T00:02:35;7.87;;;5.90;;
32824;SDS011;51060;42.640;24.356;2024-03-08T00:05:02;7.20;;;5.20;;
32824;SDS011;51060;42.640;24.356;2024-03-08T00:07:29;7.40;;;5.30;;
32824;SDS011;51060;42.640;24.356;2024-03-08T00:09:55;8.50;;;4.70;;
32824;SDS011;51060;42.640;24.356;2024-03-08T00:12:23;5.73;;;3.80;;
32824;SDS011;51060;42.640;24.356;2024-03-08T00:14:51;4.97;;;3.90;;
32824;SDS011;51060;42.640;24.356;2024-03-08T00:17:17;5.63;;;4.63;;
32824;SDS011;51060;42.640;24.356;2024-03-08T00:19:43;6.37;;;5.03;;
32824;SDS011;51060;42.640;24.356;2024-03-08T00:22:08;6.33;;;5.30;;
32824;SDS011;51060;42.640;24.356;2024-03-08T00:24:37;6.40;;;4.90;;
32824;SDS011;51060;42.640;24.356;2024-03-08T00:27:02;7.17;;;4.63;;
32824;SDS011;51060;42.640;24.356;2024-03-08T00:29:30;6.60;;;4.93;;
32824;SDS011;51060;42.640;24.356;2024-03-08T00:31:55;8.03;;;5.67;;
32824;SDS011;51060;42.640;24.356;2024-03-08T00:34:21;7.47;;;5.50;;
32824;SDS011;51060;42.640;24.356;2024-03-08T00:36:46;7.03;;;5.30;;
32824;SDS011;51060;42.640;24.356;2024-03-08T00:39:15;4.97;;;4.10;;
32824;SDS011;51060;42.640;24.356;2024-03-08T00:41:41;4.93;;;3.30;;
32824;SDS011;51060;42.640;24.356;2024-03-08T00:44:07;5.40;;;3.83;;
32824;SDS011;51060;42.640;24.356;2024-03-08T00:46:32;4.27;;;3.30;;
32824;SDS011;51060;42.640;24.356;2024-03-08T00:48:59;3.47;;;2.80;;
32824;SDS011;51060;42.640;24.356;2024-03-08T00:51:24;3.00;;;2.53;;
32824;SDS011;51060;42.640;24.356;2024-03-08T00:53:50;3.60;;;2.80;;
32824;SDS011;51060;42.640;24.356;2024-03-08T00:56:15;3.87;;;2.80;;
32824;SDS011;51060;42.640;24.356;2024-03-08T00:58:41;3.23;;;2.73;;
32824;SDS011;51060;42.640;24.356;2024-03-08T01:01:09;2.87;;;2.00;;
32824;SDS011;51060;42.640;24.356;2024-03-08T01:03:35;2.20;;;1.87;;
32824;SDS011;51060;42.640;24.356;2024-03-08T01:06:01;1.73;;;1.63;;
32824;SDS011;51060;42.640;24.356;2024-03-08T01:08:27;2.27;;;2.07;;
32824;SDS011;51060;42.640;24.356;2024-03-08T01:10:53;2.23;;;2.03;;
32824;SDS011;51060;42.640;24.356;2024-03-08T01:13:19;2.57;;;2.33;;
32824;SDS011;51060;42.640;24.356;2024-03-08T01:15:45;3.77;;;3.20;;
32824;SDS011;51060;42.640;24.356;2024-03-08T01:18:11;2.83;;;2.43;;
32824;SDS011;51060;42.640;24.356;2024-03-08T01:20:36;3.47;;;2.40;;
32824;SDS011;51060;42.640;24.356;2024-03-08T01:23:02;3.67;;;2.90;;
32824;SDS011;51060;42.640;24.356;2024-03-08T01:25:30;3.53;;;2.53;;
32824;SDS011;51060;42.640;24.356;2024-03-08T01:27:57;3.90;;;3.07;;
32824;SDS011;51060;42.640;24.356;2024-03-08T01:30:22;4.90;;;3.70;;
32824;SDS011;51060;42.640;24.356;2024-03-08T01:32:48;3.70;;;3.30;;
32824;SDS011;51060;42.640;24.356;2024-03-08T01:35:14;4.33;;;3.27;;
32824;SDS011;51060;42.640;24.356;2024-03-08T01:37:39;4.10;;;3.30;;
32824;SDS011;51060;42.640;24.356;2024-03-08T01:40:05;4.30;;;3.50;;
32824;SDS011;51060;42.640;24.356;2024-03-08T01:42:33;3.90;;;3.40;;
32824;SDS011;51060;42.640;24.356;2024-03-08T01:45:05;4.37;;;3.70;;
32824;SDS011;51060;42.640;24.356;2024-03-08T01:47:32;4.30;;;3.13;;
32824;SDS011;51060;42.640;24.356;2024-03-08T01:49:58;4.07;;;3.30;;
32824;SDS011;51060;42.640;24.356;2024-03-08T01:52:26;6.10;;;4.03;;
32824;SDS011;51060;42.640;24.356;2024-03-08T01:54:54;4.43;;;3.70;;
32824;SDS011;51060;42.640;24.356;2024-03-08T01:57:20;7.40;;;4.73;;
32824;SDS011;51060;42.640;24.356;2024-03-08T01:59:46;5.90;;;4.30;;
32824;SDS011;51060;42.640;24.356;2024-03-08T02:02:11;5.10;;;3.97;;
32824;SDS011;51060;42.640;24.356;2024-03-08T02:04:40;4.43;;;3.80;;
32824;SDS011;51060;42.640;24.356;2024-03-08T02:07:06;4.40;;;3.70;;
32824;SDS011;51060;42.640;24.356;2024-03-08T02:09:31;4.00;;;3.60;;
32824;SDS011;51060;42.640;24.356;2024-03-08T02:11:57;4.77;;;4.07;;
32824;SDS011;51060;42.640;24.356;2024-03-08T02:14:25;3.73;;;3.10;;
32824;SDS011;51060;42.640;24.356;2024-03-08T02:16:51;4.67;;;3.43;;
32824;SDS011;51060;42.640;24.356;2024-03-08T02:19:16;3.97;;;3.43;;
32824;SDS011;51060;42.640;24.356;2024-03-08T02:21:42;4.53;;;3.67;;
32824;SDS011;51060;42.640;24.356;2024-03-08T02:24:08;4.40;;;3.83;;
32824;SDS011;51060;42.640;24.356;2024-03-08T02:26:34;5.33;;;4.43;;
32824;SDS011;51060;42.640;24.356;2024-03-08T02:29:00;6.37;;;4.97;;
32824;SDS011;51060;42.640;24.356;2024-03-08T02:31:25;5.80;;;4.60;;
32824;SDS011;51060;42.640;24.356;2024-03-08T02:33:51;5.20;;;4.37;;
32824;SDS011;51060;42.640;24.356;2024-03-08T02:36:19;5.23;;;4.53;;
32824;SDS011;51060;42.640;24.356;2024-03-08T02:38:45;6.17;;;4.70;;
32824;SDS011;51060;42.640;24.356;2024-03-08T02:41:10;6.20;;;4.90;;
32824;SDS011;51060;42.640;24.356;2024-03-08T02:43:39;6.30;;;4.97;;
32824;SDS011;51060;42.640;24.356;2024-03-08T02:46:04;6.07;;;4.63;;
32824;SDS011;51060;42.640;24.356;2024-03-08T02:48:30;6.80;;;5.57;;
32824;SDS011;51060;42.640;24.356;2024-03-08T02:50:56;7.60;;;6.07;;
32824;SDS011;51060;42.640;24.356;2024-03-08T02:53:21;11.17;;;8.83;;
32824;SDS011;51060;42.640;24.356;2024-03-08T02:55:47;8.70;;;7.10;;
32824;SDS011;51060;42.640;24.356;2024-03-08T02:58:13;8.93;;;6.90;;
32824;SDS011;51060;42.640;24.356;2024-03-08T03:00:39;8.73;;;7.10;;
32824;SDS011;51060;42.640;24.356;2024-03-08T03:03:06;9.47;;;7.60;;
32824;SDS011;51060;42.640;24.356;2024-03-08T03:05:32;8.33;;;6.87;;
32824;SDS011;51060;42.640;24.356;2024-03-08T03:07:59;8.37;;;7.13;;
32824;SDS011;51060;42.640;24.356;2024-03-08T03:10:24;10.23;;;8.20;;
32824;SDS011;51060;42.640;24.356;2024-03-08T03:12:51;10.83;;;8.67;;
32824;SDS011;51060;42.640;24.356;2024-03-08T03:15:16;12.80;;;9.90;;
32824;SDS011;51060;42.640;24.356;2024-03-08T03:17:46;11.83;;;9.00;;
32824;SDS011;51060;42.640;24.356;2024-03-08T03:20:13;9.67;;;7.63;;
32824;SDS011;51060;42.640;24.356;2024-03-08T03:22:39;7.60;;;6.30;;
32824;SDS011;51060;42.640;24.356;2024-03-08T03:25:12;9.60;;;8.23;;
32824;SDS011;51060;42.640;24.356;2024-03-08T03:27:44;9.80;;;7.37;;
32824;SDS011;51060;42.640;24.356;2024-03-08T03:30:11;9.77;;;7.43;;
32824;SDS011;51060;42.640;24.356;2024-03-08T03:32:49;7.93;;;6.07;;
32824;SDS011;51060;42.640;24.356;2024-03-08T03:35:16;8.40;;;5.77;;
32824;SDS011;51060;42.640;24.356;2024-03-08T03:37:42;8.63;;;6.97;;
32824;SDS011;51060;42.640;24.356;2024-03-08T03:40:10;8.50;;;7.10;;
32824;SDS011;51060;42.640;24.356;2024-03-08T03:42:38;9.67;;;7.23;;
32824;SDS011;51060;42.640;24.356;2024-03-08T03:45:06;8.07;;;6.33;;
32824;SDS011;51060;42.640;24.356;2024-03-08T03:47:32;7.83;;;6.00;;
32824;SDS011;51060;42.640;24.356;2024-03-08T03:49:58;19.57;;;12.73;;
32824;SDS011;51060;42.640;24.356;2024-03-08T03:52:27;24.40;;;13.50;;
32824;SDS011;51060;42.640;24.356;2024-03-08T03:54:52;21.30;;;13.30;;
32824;SDS011;51060;42.640;24.356;2024-03-08T03:57:18;26.33;;;16.67;;
32824;SDS011;51060;42.640;24.356;2024-03-08T03:59:45;27.03;;;18.50;;
32824;SDS011;51060;42.640;24.356;2024-03-08T04:02:12;25.67;;;16.00;;
32824;SDS011;51060;42.640;24.356;2024-03-08T04:04:38;21.10;;;12.20;;
32824;SDS011;51060;42.640;24.356;2024-03-08T04:07:04;21.83;;;12.23;;
32824;SDS011;51060;42.640;24.356;2024-03-08T04:09:30;30.73;;;18.07;;
32824;SDS011;51060;42.640;24.356;2024-03-08T04:11:55;49.57;;;31.10;;
32824;SDS011;51060;42.640;24.356;2024-03-08T04:14:22;47.90;;;27.33;;
32824;SDS011;51060;42.640;24.356;2024-03-08T04:16:48;31.27;;;17.67;;
32824;SDS011;51060;42.640;24.356;2024-03-08T04:19:14;23.00;;;14.10;;
32824;SDS011;51060;42.640;24.356;2024-03-08T04:21:42;18.33;;;11.03;;
32824;SDS011;51060;42.640;24.356;2024-03-08T04:24:07;16.87;;;10.80;;
32824;SDS011;51060;42.640;24.356;2024-03-08T04:26:34;17.03;;;10.57;;
32824;SDS011;51060;42.640;24.356;2024-03-08T04:29:00;17.33;;;10.53;;
32824;SDS011;51060;42.640;24.356;2024-03-08T04:31:26;17.63;;;11.40;;
32824;SDS011;51060;42.640;24.356;2024-03-08T04:33:52;21.03;;;12.33;;
32824;SDS011;51060;42.640;24.356;2024-03-08T04:36:18;23.97;;;13.53;;
32824;SDS011;51060;42.640;24.356;2024-03-08T04:38:44;21.57;;;13.17;;
32824;SDS011;51060;42.640;24.356;2024-03-08T04:41:11;18.43;;;11.83;;
32824;SDS011;51060;42.640;24.356;2024-03-08T04:43:39;12.73;;;8.53;;
32824;SDS011;51060;42.640;24.356;2024-03-08T04:46:05;9.87;;;8.00;;
32824;SDS011;51060;42.640;24.356;2024-03-08T04:48:31;11.47;;;8.23;;
32824;SDS011;51060;42.640;24.356;2024-03-08T04:50:56;8.10;;;6.80;;
32824;SDS011;51060;42.640;24.356;2024-03-08T04:53:22;9.80;;;6.53;;
32824;SDS011;51060;42.640;24.356;2024-03-08T04:55:48;9.33;;;6.90;;
32824;SDS011;51060;42.640;24.356;2024-03-08T04:58:14;11.37;;;7.63;;
32824;SDS011;51060;42.640;24.356;2024-03-08T05:00:40;11.50;;;7.80;;
32824;SDS011;51060;42.640;24.356;2024-03-08T05:03:06;11.50;;;7.17;;
32824;SDS011;51060;42.640;24.356;2024-03-08T05:05:31;7.97;;;6.40;;
32824;SDS011;51060;42.640;24.356;2024-03-08T05:07:58;7.43;;;5.63;;
32824;SDS011;51060;42.640;24.356;2024-03-08T05:10:24;7.67;;;6.27;;
32824;SDS011;51060;42.640;24.356;2024-03-08T05:12:49;10.70;;;8.27;;
32824;SDS011;51060;42.640;24.356;2024-03-08T05:15:15;12.73;;;8.77;;
32824;SDS011;51060;42.640;24.356;2024-03-08T05:17:41;14.57;;;9.63;;
32824;SDS011;51060;42.640;24.356;2024-03-08T05:20:07;11.90;;;8.73;;
32824;SDS011;51060;42.640;24.356;2024-03-08T05:22:37;11.47;;;8.33;;
32824;SDS011;51060;42.640;24.356;2024-03-08T05:25:03;11.63;;;9.03;;
32824;SDS011;51060;42.640;24.356;2024-03-08T05:27:29;14.93;;;10.63;;
32824;SDS011;51060;42.640;24.356;2024-03-08T05:29:55;13.03;;;9.60;;
32824;SDS011;51060;42.640;24.356;2024-03-08T05:32:20;10.30;;;8.07;;
32824;SDS011;51060;42.640;24.356;2024-03-08T05:34:49;14.17;;;10.77;;
32824;SDS011;51060;42.640;24.356;2024-03-08T05:37:15;13.13;;;9.03;;
32824;SDS011;51060;42.640;24.356;2024-03-08T05:39:41;8.63;;;6.83;;
32824;SDS011;51060;42.640;24.356;2024-03-08T05:42:06;10.47;;;7.40;;
32824;SDS011;51060;42.640;24.356;2024-03-08T05:44:34;8.20;;;6.17;;
32824;SDS011;51060;42.640;24.356;2024-03-08T05:46:59;8.07;;;6.60;;
32824;SDS011;51060;42.640;24.356;2024-03-08T05:49:25;11.40;;;9.67;;
32824;SDS011;51060;42.640;24.356;2024-03-08T05:51:51;16.57;;;13.60;;
32824;SDS011;51060;42.640;24.356;2024-03-08T05:54:17;10.27;;;8.53;;
32824;SDS011;51060;42.640;24.356;2024-03-08T05:56:42;14.30;;;10.53;;
32824;SDS011;51060;42.640;24.356;2024-03-08T05:59:08;11.17;;;8.77;;
32824;SDS011;51060;42.640;24.356;2024-03-08T06:01:34;12.17;;;9.00;;
32824;SDS011;51060;42.640;24.356;2024-03-08T06:04:01;11.07;;;9.00;;
32824;SDS011;51060;42.640;24.356;2024-03-08T06:06:28;7.67;;;6.50;;
32824;SDS011;51060;42.640;24.356;2024-03-08T06:08:54;9.80;;;8.80;;
32824;SDS011;51060;42.640;24.356;2024-03-08T06:11:21;9.43;;;8.43;;
32824;SDS011;51060;42.640;24.356;2024-03-08T06:13:47;8.77;;;7.50;;
32824;SDS011;51060;42.640;24.356;2024-03-08T06:16:15;7.53;;;6.50;;
32824;SDS011;51060;42.640;24.356;2024-03-08T06:18:41;7.27;;;5.83;;
32824;SDS011;51060;42.640;24.356;2024-03-08T06:21:07;5.27;;;4.77;;
32824;SDS011;51060;42.640;24.356;2024-03-08T06:23:41;6.03;;;5.30;;
32824;SDS011;51060;42.640;24.356;2024-03-08T06:26:09;5.77;;;4.73;;
32824;SDS011;51060;42.640;24.356;2024-03-08T06:28:35;6.07;;;4.67;;
32824;SDS011;51060;42.640;24.356;2024-03-08T06:31:04;4.40;;;3.90;;
32824;SDS011;51060;42.640;24.356;2024-03-08T06:33:30;9.13;;;6.53;;
32824;SDS011;51060;42.640;24.356;2024-03-08T06:35:57;5.03;;;4.33;;
32824;SDS011;51060;42.640;24.356;2024-03-08T06:38:23;7.33;;;6.43;;
32824;SDS011;51060;42.640;24.356;2024-03-08T06:40:52;12.20;;;10.70;;
32824;SDS011;51060;42.640;24.356;2024-03-08T06:43:19;7.20;;;6.50;;
32824;SDS011;51060;42.640;24.356;2024-03-08T06:45:45;12.23;;;10.93;;
32824;SDS011;51060;42.640;24.356;2024-03-08T06:48:19;7.77;;;7.00;;
32824;SDS011;51060;42.640;24.356;2024-03-08T06:50:45;8.83;;;7.37;;
32824;SDS011;51060;42.640;24.356;2024-03-08T06:53:12;7.27;;;6.17;;
32824;SDS011;51060;42.640;24.356;2024-03-08T06:55:38;5.03;;;4.53;;
32824;SDS011;51060;42.640;24.356;2024-03-08T06:58:04;7.23;;;6.53;;
32824;SDS011;51060;42.640;24.356;2024-03-08T07:00:31;7.40;;;6.70;;
32824;SDS011;51060;42.640;24.356;2024-03-08T07:02:57;5.60;;;5.00;;
32824;SDS011;51060;42.640;24.356;2024-03-08T07:05:29;5.80;;;5.30;;
32824;SDS011;51060;42.640;24.356;2024-03-08T07:07:55;6.50;;;4.90;;
32824;SDS011;51060;42.640;24.356;2024-03-08T07:10:21;6.20;;;4.60;;
32824;SDS011;51060;42.640;24.356;2024-03-08T07:12:52;5.93;;;4.70;;
32824;SDS011;51060;42.640;24.356;2024-03-08T07:15:18;5.77;;;5.00;;
32824;SDS011;51060;42.640;24.356;2024-03-08T07:17:45;4.03;;;3.63;;
32824;SDS011;51060;42.640;24.356;2024-03-08T07:20:11;4.60;;;3.90;;
32824;SDS011;51060;42.640;24.356;2024-03-08T07:22:39;4.13;;;3.63;;
32824;SDS011;51060;42.640;24.356;2024-03-08T07:25:07;9.10;;;5.83;;
32824;SDS011;51060;42.640;24.356;2024-03-08T07:27:51;4.00;;;3.60;;
32824;SDS011;51060;42.640;24.356;2024-03-08T07:30:19;3.87;;;2.97;;
32824;SDS011;51060;42.640;24.356;2024-03-08T07:33:04;3.80;;;3.40;;
32824;SDS011;51060;42.640;24.356;2024-03-08T07:35:31;3.40;;;2.57;;
32824;SDS011;51060;42.640;24.356;2024-03-08T07:37:57;4.40;;;4.00;;
32824;SDS011;51060;42.640;24.356;2024-03-08T07:40:25;5.87;;;5.27;;
32824;SDS011;51060;42.640;24.356;2024-03-08T07:42:51;4.87;;;4.37;;
32824;SDS011;51060;42.640;24.356;2024-03-08T07:45:16;3.00;;;2.70;;
32824;SDS011;51060;42.640;24.356;2024-03-08T07:47:42;4.53;;;3.83;;
32824;SDS011;51060;42.640;24.356;2024-03-08T07:50:08;5.33;;;4.03;;
32824;SDS011;51060;42.640;24.356;2024-03-08T07:52:34;4.03;;;3.10;;
32824;SDS011;51060;42.640;24.356;2024-03-08T07:55:01;3.77;;;3.20;;
32824;SDS011;51060;42.640;24.356;2024-03-08T07:57:28;3.80;;;3.40;;
32824;SDS011;51060;42.640;24.356;2024-03-08T07:59:55;3.70;;;2.90;;
32824;SDS011;51060;42.640;24.356;2024-03-08T08:02:20;1.83;;;1.70;;
32824;SDS011;51060;42.640;24.356;2024-03-08T08:04:46;3.40;;;3.10;;
32824;SDS011;51060;42.640;24.356;2024-03-08T08:07:12;1.87;;;1.67;;
32824;SDS011;51060;42.640;24.356;2024-03-08T08:09:37;6.20;;;4.40;;
32824;SDS011;51060;42.640;24.356;2024-03-08T08:12:03;1.40;;;1.30;;
32824;SDS011;51060;42.640;24.356;2024-03-08T08:14:30;1.90;;;1.80;;
32824;SDS011;51060;42.640;24.356;2024-03-08T08:16:56;2.10;;;1.90;;
32824;SDS011;51060;42.640;24.356;2024-03-08T08:19:23;4.00;;;2.83;;
32824;SDS011;51060;42.640;24.356;2024-03-08T08:21:48;6.90;;;6.20;;
32824;SDS011;51060;42.640;24.356;2024-03-08T08:24:17;2.90;;;2.60;;
32824;SDS011;51060;42.640;24.356;2024-03-08T08:26:45;3.13;;;2.80;;
32824;SDS011;51060;42.640;24.356;2024-03-08T08:29:11;6.10;;;4.17;;
32824;SDS011;51060;42.640;24.356;2024-03-08T08:31:36;4.00;;;3.57;;
32824;SDS011;51060;42.640;24.356;2024-03-08T08:34:02;2.40;;;2.17;;
32824;SDS011;51060;42.640;24.356;2024-03-08T08:36:28;1.60;;;1.50;;
32824;SDS011;51060;42.640;24.356;2024-03-08T08:38:55;3.33;;;3.03;;
32824;SDS011;51060;42.640;24.356;2024-03-08T08:41:23;3.90;;;3.37;;
32824;SDS011;51060;42.640;24.356;2024-03-08T08:43:49;2.80;;;2.60;;
32824;SDS011;51060;42.640;24.356;2024-03-08T08:46:17;2.80;;;2.60;;
32824;SDS011;51060;42.640;24.356;2024-03-08T08:48:43;4.83;;;4.43;;
32824;SDS011;51060;42.640;24.356;2024-03-08T08:51:13;6.57;;;4.50;;
32824;SDS011;51060;42.640;24.356;2024-03-08T08:53:42;2.70;;;2.50;;
32824;SDS011;51060;42.640;24.356;2024-03-08T08:56:15;2.80;;;2.50;;
32824;SDS011;51060;42.640;24.356;2024-03-08T08:58:41;2.60;;;2.33;;
32824;SDS011;51060;42.640;24.356;2024-03-08T09:01:10;1.73;;;1.63;;
32824;SDS011;51060;42.640;24.356;2024-03-08T09:03:37;4.73;;;4.20;;
32824;SDS011;51060;42.640;24.356;2024-03-08T09:06:09;3.87;;;3.37;;
32824;SDS011;51060;42.640;24.356;2024-03-08T09:08:38;3.93;;;3.23;;
32824;SDS011;51060;42.640;24.356;2024-03-08T09:11:04;11.97;;;8.70;;
32824;SDS011;51060;42.640;24.356;2024-03-08T09:13:30;5.60;;;5.00;;
32824;SDS011;51060;42.640;24.356;2024-03-08T09:15:56;5.53;;;3.90;;
32824;SDS011;51060;42.640;24.356;2024-03-08T09:18:22;4.63;;;4.10;;
32824;SDS011;51060;42.640;24.356;2024-03-08T09:20:49;2.57;;;2.37;;
32824;SDS011;51060;42.640;24.356;2024-03-08T09:23:14;2.70;;;2.00;;
32824;SDS011;51060;42.640;24.356;2024-03-08T09:25:42;2.97;;;2.17;;
32824;SDS011;51060;42.640;24.356;2024-03-08T09:28:09;3.23;;;2.40;;
32824;SDS011;51060;42.640;24.356;2024-03-08T09:30:37;4.33;;;3.80;;
32824;SDS011;51060;42.640;24.356;2024-03-08T09:33:03;5.17;;;3.67;;
32824;SDS011;51060;42.640;24.356;2024-03-08T09:35:30;6.23;;;4.87;;
32824;SDS011;51060;42.640;24.356;2024-03-08T09:37:55;4.53;;;3.70;;
32824;SDS011;51060;42.640;24.356;2024-03-08T09:40:21;2.20;;;2.00;;
32824;SDS011;51060;42.640;24.356;2024-03-08T09:42:49;1.80;;;1.67;;
32824;SDS011;51060;42.640;24.356;2024-03-08T09:45:15;2.07;;;1.60;;
32824;SDS011;51060;42.640;24.356;2024-03-08T09:47:42;2.93;;;2.43;;
32824;SDS011;51060;42.640;24.356;2024-03-08T09:50:09;12.63;;;8.70;;
32824;SDS011;51060;42.640;24.356;2024-03-08T09:52:41;3.73;;;2.60;;
32824;SDS011;51060;42.640;24.356;2024-03-08T09:55:10;4.00;;;2.40;;
32824;SDS011;51060;42.640;24.356;2024-03-08T09:57:36;1.90;;;1.40;;
32824;SDS011;51060;42.640;24.356;2024-03-08T10:00:03;6.60;;;4.50;;
32824;SDS011;51060;42.640;24.356;2024-03-08T10:02:46;6.37;;;4.23;;
32824;SDS011;51060;42.640;24.356;2024-03-08T10:05:12;4.07;;;3.10;;
32824;SDS011;51060;42.640;24.356;2024-03-08T10:07:39;15.93;;;9.27;;
32824;SDS011;51060;42.640;24.356;2024-03-08T10:10:07;8.33;;;5.80;;
32824;SDS011;51060;42.640;24.356;2024-03-08T10:12:40;5.20;;;4.30;;
32824;SDS011;51060;42.640;24.356;2024-03-08T10:15:08;5.23;;;4.07;;
32824;SDS011;51060;42.640;24.356;2024-03-08T10:17:34;3.90;;;3.50;;
32824;SDS011;51060;42.640;24.356;2024-03-08T10:20:00;2.63;;;2.43;;
32824;SDS011;51060;42.640;24.356;2024-03-08T10:22:26;12.60;;;10.20;;
32824;SDS011;51060;42.640;24.356;2024-03-08T10:24:51;6.90;;;5.90;;
32824;SDS011;51060;42.640;24.356;2024-03-08T10:27:17;5.07;;;4.13;;
32824;SDS011;51060;42.640;24.356;2024-03-08T10:29:46;2.17;;;1.80;;
32824;SDS011;51060;42.640;24.356;2024-03-08T10:32:16;5.83;;;4.70;;
32824;SDS011;51060;42.640;24.356;2024-03-08T10:34:42;4.33;;;3.60;;
32824;SDS011;51060;42.640;24.356;2024-03-08T10:37:11;3.10;;;2.80;;
32824;SDS011;51060;42.640;24.356;2024-03-08T10:39:43;3.10;;;2.80;;
32824;SDS011;51060;42.640;24.356;2024-03-08T10:42:14;6.93;;;6.43;;
32824;SDS011;51060;42.640;24.356;2024-03-08T10:44:51;6.40;;;5.80;;
32824;SDS011;51060;42.640;24.356;2024-03-08T10:47:26;4.63;;;3.87;;
32824;SDS011;51060;42.640;24.356;2024-03-08T10:49:59;2.70;;;2.37;;
32824;SDS011;51060;42.640;24.356;2024-03-08T10:52:29;4.87;;;3.20;;
32824;SDS011;51060;42.640;24.356;2024-03-08T10:54:57;2.83;;;2.63;;
32824;SDS011;51060;42.640;24.356;2024-03-08T10:57:24;2.67;;;2.47;;
32824;SDS011;51060;42.640;24.356;2024-03-08T10:59:50;14.03;;;8.47;;
32824;SDS011;51060;42.640;24.356;2024-03-08T11:02:17;11.10;;;8.53;;
32824;SDS011;51060;42.640;24.356;2024-03-08T11:04:53;12.20;;;9.97;;
32824;SDS011;51060;42.640;24.356;2024-03-08T11:07:21;12.67;;;10.53;;
32824;SDS011;51060;42.640;24.356;2024-03-08T11:09:48;13.50;;;10.33;;
32824;SDS011;51060;42.640;24.356;2024-03-08T11:14:55;8.93;;;7.77;;
32824;SDS011;51060;42.640;24.356;2024-03-08T11:19:52;15.87;;;11.50;;
32824;SDS011;51060;42.640;24.356;2024-03-08T11:22:22;14.23;;;11.67;;
32824;SDS011;51060;42.640;24.356;2024-03-08T11:24:52;16.43;;;12.33;;
32824;SDS011;51060;42.640;24.356;2024-03-08T11:27:18;12.30;;;9.83;;
32824;SDS011;51060;42.640;24.356;2024-03-08T11:29:58;12.13;;;10.10;;
32824;SDS011;51060;42.640;24.356;2024-03-08T11:32:29;12.70;;;10.27;;
32824;SDS011;51060;42.640;24.356;2024-03-08T11:34:55;11.77;;;9.40;;
32824;SDS011;51060;42.640;24.356;2024-03-08T11:37:21;12.10;;;10.70;;
32824;SDS011;51060;42.640;24.356;2024-03-08T11:39:47;12.90;;;9.30;;
32824;SDS011;51060;42.640;24.356;2024-03-08T11:42:14;11.17;;;9.47;;
32824;SDS011;51060;42.640;24.356;2024-03-08T11:44:45;20.77;;;15.03;;
32824;SDS011;51060;42.640;24.356;2024-03-08T11:47:12;11.13;;;8.80;;
32824;SDS011;51060;42.640;24.356;2024-03-08T11:49:39;13.07;;;10.33;;
32824;SDS011;51060;42.640;24.356;2024-03-08T11:52:12;11.90;;;9.60;;
32824;SDS011;51060;42.640;24.356;2024-03-08T11:54:39;11.97;;;9.60;;
32824;SDS011;51060;42.640;24.356;2024-03-08T11:57:05;9.37;;;7.90;;
32824;SDS011;51060;42.640;24.356;2024-03-08T11:59:31;11.47;;;9.33;;
32824;SDS011;51060;42.640;24.356;2024-03-08T12:02:06;13.33;;;10.73;;
32824;SDS011;51060;42.640;24.356;2024-03-08T12:04:35;10.60;;;8.63;;
32824;SDS011;51060;42.640;24.356;2024-03-08T12:07:01;11.20;;;8.77;;
32824;SDS011;51060;42.640;24.356;2024-03-08T12:09:28;12.90;;;10.47;;
32824;SDS011;51060;42.640;24.356;2024-03-08T12:11:54;16.17;;;11.87;;
32824;SDS011;51060;42.640;24.356;2024-03-08T12:14:23;19.23;;;13.03;;
32824;SDS011;51060;42.640;24.356;2024-03-08T12:16:50;11.90;;;10.00;;
32824;SDS011;51060;42.640;24.356;2024-03-08T12:19:18;15.47;;;11.73;;
32824;SDS011;51060;42.640;24.356;2024-03-08T12:21:44;13.70;;;11.03;;
32824;SDS011;51060;42.640;24.356;2024-03-08T12:24:14;12.70;;;10.23;;
32824;SDS011;51060;42.640;24.356;2024-03-08T12:26:45;13.10;;;10.43;;
32824;SDS011;51060;42.640;24.356;2024-03-08T12:29:29;11.27;;;9.20;;
32824;SDS011;51060;42.640;24.356;2024-03-08T12:31:56;12.47;;;9.63;;
32824;SDS011;51060;42.640;24.356;2024-03-08T12:34:26;14.23;;;11.40;;
32824;SDS011;51060;42.640;24.356;2024-03-08T12:36:57;13.63;;;10.07;;
32824;SDS011;51060;42.640;24.356;2024-03-08T12:39:23;14.63;;;11.20;;
32824;SDS011;51060;42.640;24.356;2024-03-08T12:41:52;19.73;;;13.93;;
32824;SDS011;51060;42.640;24.356;2024-03-08T12:44:19;21.33;;;16.10;;
32824;SDS011;51060;42.640;24.356;2024-03-08T12:46:47;31.07;;;20.50;;
32824;SDS011;51060;42.640;24.356;2024-03-08T12:49:13;31.13;;;21.43;;
32824;SDS011;51060;42.640;24.356;2024-03-08T12:51:45;27.17;;;19.00;;
32824;SDS011;51060;42.640;24.356;2024-03-08T12:54:11;20.63;;;13.27;;
32824;SDS011;51060;42.640;24.356;2024-03-08T12:56:37;19.53;;;12.80;;
32824;SDS011;51060;42.640;24.356;2024-03-08T12:59:03;23.43;;;15.70;;
32824;SDS011;51060;42.640;24.356;2024-03-08T13:01:29;22.50;;;15.83;;
32824;SDS011;51060;42.640;24.356;2024-03-08T13:03:59;21.13;;;14.93;;
32824;SDS011;51060;42.640;24.356;2024-03-08T13:06:29;19.10;;;14.67;;
32824;SDS011;51060;42.640;24.356;2024-03-08T13:08:56;20.40;;;15.27;;
32824;SDS011;51060;42.640;24.356;2024-03-08T13:11:23;20.97;;;15.70;;
32824;SDS011;51060;42.640;24.356;2024-03-08T13:13:49;18.67;;;13.57;;
32824;SDS011;51060;42.640;24.356;2024-03-08T13:16:15;20.57;;;14.07;;
32824;SDS011;51060;42.640;24.356;2024-03-08T13:18:42;23.20;;;15.57;;
32824;SDS011;51060;42.640;24.356;2024-03-08T13:21:08;20.43;;;14.60;;
32824;SDS011;51060;42.640;24.356;2024-03-08T13:23:39;19.27;;;13.83;;
32824;SDS011;51060;42.640;24.356;2024-03-08T13:26:09;19.30;;;14.17;;
32824;SDS011;51060;42.640;24.356;2024-03-08T13:28:40;20.80;;;15.13;;
32824;SDS011;51060;42.640;24.356;2024-03-08T13:31:06;20.93;;;14.60;;
32824;SDS011;51060;42.640;24.356;2024-03-08T13:33:35;15.70;;;11.73;;
32824;SDS011;51060;42.640;24.356;2024-03-08T13:36:07;18.43;;;12.80;;
32824;SDS011;51060;42.640;24.356;2024-03-08T13:38:47;20.20;;;14.03;;
32824;SDS011;51060;42.640;24.356;2024-03-08T13:41:13;17.13;;;13.57;;
32824;SDS011;51060;42.640;24.356;2024-03-08T13:43:42;19.03;;;14.03;;
32824;SDS011;51060;42.640;24.356;2024-03-08T13:46:08;22.93;;;14.47;;
32824;SDS011;51060;42.640;24.356;2024-03-08T13:48:35;18.57;;;13.00;;
32824;SDS011;51060;42.640;24.356;2024-03-08T13:51:03;34.13;;;20.20;;
32824;SDS011;51060;42.640;24.356;2024-03-08T13:53:31;17.10;;;13.47;;
32824;SDS011;51060;42.640;24.356;2024-03-08T13:55:57;16.03;;;11.77;;
32824;SDS011;51060;42.640;24.356;2024-03-08T13:58:23;10.33;;;9.20;;
32824;SDS011;51060;42.640;24.356;2024-03-08T14:00:49;22.83;;;15.33;;
32824;SDS011;51060;42.640;24.356;2024-03-08T14:03:16;23.20;;;14.20;;
32824;SDS011;51060;42.640;24.356;2024-03-08T14:05:42;37.17;;;23.30;;
32824;SDS011;51060;42.640;24.356;2024-03-08T14:08:11;30.10;;;19.97;;
32824;SDS011;51060;42.640;24.356;2024-03-08T14:10:37;38.47;;;24.37;;
32824;SDS011;51060;42.640;24.356;2024-03-08T14:13:03;36.57;;;23.23;;
32824;SDS011;51060;42.640;24.356;2024-03-08T14:15:30;27.60;;;17.47;;
32824;SDS011;51060;42.640;24.356;2024-03-08T14:17:56;20.53;;;14.13;;
32824;SDS011;51060;42.640;24.356;2024-03-08T14:20:23;10.93;;;7.83;;
32824;SDS011;51060;42.640;24.356;2024-03-08T14:22:51;12.47;;;9.00;;
32824;SDS011;51060;42.640;24.356;2024-03-08T14:25:17;14.07;;;9.77;;
32824;SDS011;51060;42.640;24.356;2024-03-08T14:27:46;13.03;;;9.93;;
32824;SDS011;51060;42.640;24.356;2024-03-08T14:30:12;10.73;;;8.17;;